createdAt,value
2019-02-11T00:01:38.193Z,6.60
2019-02-11T00:04:09.580Z,6.50
2019-02-11T00:06:41.614Z,6.40
2019-02-11T00:09:12.962Z,6.30
2019-02-11T00:11:44.636Z,6.30
2019-02-11T00:14:16.126Z,6.30
2019-02-11T00:16:47.517Z,6.20
2019-02-11T00:19:18.942Z,6.20
2019-02-11T00:21:50.327Z,6.20
2019-02-11T00:24:21.632Z,6.10
2019-02-11T00:26:53.013Z,6.20
2019-02-11T00:29:24.417Z,6.20
2019-02-11T00:31:55.835Z,6.20
2019-02-11T00:34:27.279Z,6.10
2019-02-11T00:36:58.652Z,6.00
2019-02-11T00:39:30.096Z,6.00
2019-02-11T00:42:01.613Z,6.10
2019-02-11T00:44:33.079Z,6.00
2019-02-11T00:47:04.524Z,6.00
2019-02-11T00:49:35.926Z,5.90
2019-02-11T00:52:07.369Z,6.00
2019-02-11T00:54:38.701Z,6.00
2019-02-11T00:57:10.186Z,5.90
2019-02-11T00:59:41.672Z,5.80
2019-02-11T01:02:13.138Z,5.80
2019-02-11T01:04:44.558Z,5.80
2019-02-11T01:07:15.947Z,5.70
2019-02-11T01:09:47.394Z,5.80
2019-02-11T01:12:18.844Z,5.80
2019-02-11T01:14:50.288Z,5.70
2019-02-11T01:17:21.747Z,5.60
2019-02-11T01:19:53.149Z,5.60
2019-02-11T01:22:24.587Z,5.70
2019-02-11T01:24:56.479Z,5.70
2019-02-11T01:27:27.884Z,5.70
2019-02-11T01:29:59.245Z,5.70
2019-02-11T01:32:30.672Z,5.70
2019-02-11T01:35:02.004Z,5.70
2019-02-11T01:37:33.522Z,5.60
2019-02-11T01:40:05.847Z,5.60
2019-02-11T01:42:37.245Z,5.70
2019-02-11T01:45:10.729Z,5.70
2019-02-11T01:47:42.189Z,5.70
2019-02-11T01:50:14.735Z,5.70
2019-02-11T01:52:46.143Z,5.80
2019-02-11T01:55:17.537Z,5.80
2019-02-11T01:57:49.127Z,5.70
2019-02-11T02:00:20.482Z,5.80
2019-02-11T02:02:51.946Z,5.80
2019-02-11T02:05:23.446Z,5.80
2019-02-11T02:07:54.882Z,5.80
2019-02-11T02:10:26.174Z,5.80
2019-02-11T02:12:57.871Z,5.70
2019-02-11T02:15:29.332Z,5.70
2019-02-11T02:18:00.759Z,5.70
2019-02-11T02:20:32.706Z,5.80
2019-02-11T02:23:04.164Z,5.80
2019-02-11T02:25:35.831Z,5.80
2019-02-11T02:28:07.201Z,5.80
2019-02-11T02:30:38.626Z,5.80
2019-02-11T02:33:10.005Z,5.90
2019-02-11T02:36:16.995Z,5.90
2019-02-11T02:38:48.371Z,5.90
2019-02-11T02:41:19.887Z,5.80
2019-02-11T02:43:55.704Z,5.90
2019-02-11T02:46:24.536Z,6.00
2019-02-11T02:48:55.788Z,6.00
2019-02-11T02:51:27.121Z,5.90
2019-02-11T02:53:58.917Z,5.90
2019-02-11T02:56:32.404Z,5.90
2019-02-11T02:59:03.763Z,5.70
2019-02-11T03:01:35.219Z,5.70
2019-02-11T03:04:06.681Z,5.70
2019-02-11T03:06:38.094Z,5.50
2019-02-11T03:09:09.471Z,5.60
2019-02-11T03:11:40.762Z,5.60
2019-02-11T03:14:12.279Z,5.60
2019-02-11T03:16:44.559Z,5.50
2019-02-11T03:19:16.161Z,5.40
2019-02-11T03:21:47.657Z,5.40
2019-02-11T03:24:19.114Z,5.30
2019-02-11T03:26:50.475Z,5.40
2019-02-11T03:29:22.009Z,5.30
2019-02-11T03:31:53.428Z,5.30
2019-02-11T03:34:24.904Z,5.20
2019-02-11T03:36:56.201Z,5.20
2019-02-11T03:39:27.618Z,5.20
2019-02-11T03:41:59.074Z,5.20
2019-02-11T03:44:30.754Z,5.20
2019-02-11T03:47:02.111Z,5.10
2019-02-11T03:49:33.774Z,5.00
2019-02-11T03:52:05.226Z,5.00
2019-02-11T03:54:36.750Z,4.90
2019-02-11T03:57:09.224Z,4.80
2019-02-11T03:59:40.721Z,4.70
2019-02-11T04:02:12.165Z,4.70
2019-02-11T04:04:43.627Z,4.60
2019-02-11T04:07:15.095Z,4.60
2019-02-11T04:09:46.575Z,4.60
2019-02-11T04:12:18.601Z,4.60
2019-02-11T04:14:50.091Z,4.50
2019-02-11T04:17:21.488Z,4.50
2019-02-11T04:19:52.897Z,4.50
2019-02-11T04:22:24.322Z,4.40
2019-02-11T04:24:55.767Z,4.40
2019-02-11T04:27:27.080Z,4.40
2019-02-11T04:29:58.474Z,4.40
2019-02-11T04:32:29.847Z,4.50
2019-02-11T04:35:02.288Z,4.50
2019-02-11T04:37:33.802Z,4.50
2019-02-11T04:40:05.441Z,4.50
2019-02-11T04:42:36.871Z,4.50
2019-02-11T04:45:09.617Z,4.60
2019-02-11T04:47:40.924Z,4.60
2019-02-11T04:50:13.989Z,4.60
2019-02-11T04:52:45.452Z,4.70
2019-02-11T04:55:17.068Z,4.70
2019-02-11T04:57:48.491Z,4.70
2019-02-11T05:00:19.906Z,4.70
2019-02-11T05:02:51.265Z,4.60
2019-02-11T05:05:22.658Z,4.60
2019-02-11T05:07:54.076Z,4.60
2019-02-11T05:10:26.774Z,4.60
2019-02-11T05:12:58.348Z,4.50
2019-02-11T05:15:29.839Z,4.50
2019-02-11T05:18:01.224Z,4.50
2019-02-11T05:20:32.625Z,4.40
2019-02-11T05:23:04.035Z,4.40
2019-02-11T05:25:35.423Z,4.40
2019-02-11T05:28:06.861Z,4.40
2019-02-11T05:30:39.185Z,4.50
2019-02-11T05:33:11.742Z,4.50
2019-02-11T05:35:43.108Z,4.50
2019-02-11T05:38:14.572Z,4.60
2019-02-11T05:40:45.953Z,4.60
2019-02-11T05:43:18.294Z,4.80
2019-02-11T05:45:49.799Z,4.80
2019-02-11T05:48:21.288Z,4.70
2019-02-11T05:50:52.848Z,4.80
2019-02-11T05:53:24.156Z,4.80
2019-02-11T05:55:55.559Z,4.80
2019-02-11T05:58:27.000Z,4.80
2019-02-11T06:00:58.485Z,4.90
2019-02-11T06:03:29.884Z,4.90
2019-02-11T06:06:01.225Z,4.90
2019-02-11T06:08:32.657Z,4.80
2019-02-11T06:11:04.117Z,4.80
2019-02-11T06:13:35.487Z,4.80
2019-02-11T06:16:06.926Z,4.80
2019-02-11T06:18:38.283Z,4.80
2019-02-11T06:21:09.647Z,4.80
2019-02-11T06:23:41.346Z,4.90
2019-02-11T06:26:12.923Z,5.00
2019-02-11T06:28:44.349Z,5.00
2019-02-11T06:31:15.817Z,5.00
2019-02-11T06:33:47.817Z,5.10
2019-02-11T06:36:19.257Z,5.10
2019-02-11T06:38:50.852Z,5.20
2019-02-11T06:41:23.507Z,5.10
2019-02-11T06:43:54.868Z,5.10
2019-02-11T06:46:26.317Z,5.10
2019-02-11T06:48:57.822Z,5.10
2019-02-11T06:51:29.254Z,5.00
2019-02-11T06:54:00.583Z,4.90
2019-02-11T06:56:32.087Z,4.80
2019-02-11T06:59:03.541Z,4.80
2019-02-11T07:01:34.975Z,4.80
2019-02-11T07:04:06.424Z,4.70
2019-02-11T07:06:37.769Z,4.80
2019-02-11T07:09:09.211Z,4.80
2019-02-11T07:11:40.648Z,4.70
2019-02-11T07:14:12.249Z,4.70
2019-02-11T07:16:43.724Z,4.70
2019-02-11T07:19:15.231Z,4.70
2019-02-11T07:21:46.691Z,4.70
2019-02-11T07:24:18.241Z,4.70
2019-02-11T07:26:49.767Z,4.60
2019-02-11T07:29:21.212Z,4.60
2019-02-11T07:31:52.624Z,4.60
2019-02-11T07:34:24.016Z,4.60
2019-02-11T07:36:55.493Z,4.70
2019-02-11T07:39:26.963Z,4.70
2019-02-11T07:42:12.697Z,4.70
2019-02-11T07:44:53.994Z,4.70
2019-02-11T07:47:25.503Z,4.70
2019-02-11T07:49:57.122Z,4.70
2019-02-11T07:52:28.598Z,4.70
2019-02-11T07:55:00.054Z,4.70
2019-02-11T07:57:31.555Z,4.80
2019-02-11T08:00:02.950Z,4.80
2019-02-11T08:02:34.588Z,4.80
2019-02-11T08:05:06.584Z,4.90
2019-02-11T08:07:37.996Z,5.00
2019-02-11T08:10:09.470Z,5.00
2019-02-11T08:12:40.975Z,4.90
2019-02-11T08:15:12.515Z,4.90
2019-02-11T08:17:44.039Z,4.90
2019-02-11T08:20:15.499Z,5.00
2019-02-11T08:22:46.908Z,5.10
2019-02-11T08:25:18.398Z,5.10
2019-02-11T08:27:49.835Z,5.10
2019-02-11T08:30:21.286Z,5.10
2019-02-11T08:32:52.651Z,5.10
2019-02-11T08:35:24.189Z,5.10
2019-02-11T08:37:55.545Z,5.10
2019-02-11T08:40:26.954Z,5.10
2019-02-11T08:42:58.713Z,5.20
2019-02-11T08:45:30.191Z,5.20
2019-02-11T08:48:01.716Z,5.20
2019-02-11T08:50:33.296Z,5.20
2019-02-11T08:53:04.751Z,5.20
2019-02-11T08:55:36.379Z,5.20
2019-02-11T08:58:07.889Z,5.30
2019-02-11T09:00:39.322Z,5.40
2019-02-11T09:03:10.773Z,5.40
2019-02-11T09:05:42.193Z,5.40
2019-02-11T09:08:13.616Z,5.40
2019-02-11T09:10:45.109Z,5.40
2019-02-11T09:13:16.540Z,5.40
2019-02-11T09:15:55.194Z,5.50
2019-02-11T09:18:21.147Z,5.50
2019-02-11T09:20:52.617Z,5.60
2019-02-11T09:23:24.058Z,5.70
2019-02-11T09:25:56.706Z,5.70
2019-02-11T09:28:28.147Z,5.70
2019-02-11T09:30:59.685Z,5.70
2019-02-11T09:33:31.117Z,5.70
2019-02-11T09:36:03.426Z,5.70
2019-02-11T09:38:34.991Z,5.70
2019-02-11T09:41:06.427Z,5.70
2019-02-11T09:43:37.796Z,5.80
2019-02-11T09:46:09.317Z,5.80
2019-02-11T09:48:40.824Z,5.90
2019-02-11T09:51:13.340Z,5.90
2019-02-11T09:53:44.819Z,5.90
2019-02-11T09:56:16.323Z,5.80
2019-02-11T09:58:48.041Z,5.90
2019-02-11T10:01:19.525Z,6.00
2019-02-11T10:03:51.001Z,6.10
2019-02-11T10:06:22.355Z,6.10
2019-02-11T10:08:53.871Z,6.10
2019-02-11T10:11:25.217Z,6.20
2019-02-11T10:13:56.550Z,6.20
2019-02-11T10:16:28.012Z,6.20
2019-02-11T10:18:59.427Z,6.30
2019-02-11T10:21:30.851Z,6.40
2019-02-11T10:24:02.275Z,6.40
2019-02-11T10:26:34.814Z,6.50
2019-02-11T10:29:06.227Z,6.60
2019-02-11T10:31:37.810Z,6.50
2019-02-11T10:34:09.547Z,6.50
2019-02-11T10:36:41.144Z,6.50
2019-02-11T10:39:12.766Z,6.40
2019-02-11T10:41:44.405Z,6.40
2019-02-11T10:44:15.822Z,6.30
2019-02-11T10:46:47.478Z,6.30
2019-02-11T10:49:18.860Z,6.40
2019-02-11T10:51:50.322Z,6.40
2019-02-11T10:54:21.726Z,6.50
2019-02-11T10:56:53.189Z,6.60
2019-02-11T10:59:24.556Z,6.60
2019-02-11T11:01:56.074Z,6.60
2019-02-11T11:04:27.413Z,6.60
2019-02-11T11:06:58.690Z,6.60
2019-02-11T11:09:31.403Z,6.60
2019-02-11T11:12:02.834Z,6.70
2019-02-11T11:14:34.302Z,6.70
2019-02-11T11:17:07.291Z,6.60
2019-02-11T11:19:38.752Z,6.70
2019-02-11T11:22:11.864Z,6.60
2019-02-11T11:24:43.557Z,6.70
2019-02-11T11:27:14.973Z,6.70
2019-02-11T11:29:46.518Z,6.80
2019-02-11T11:32:17.946Z,6.70
2019-02-11T11:34:49.468Z,6.80
2019-02-11T11:37:21.171Z,6.70
2019-02-11T11:39:52.632Z,6.80
2019-02-11T11:42:24.037Z,6.80
2019-02-11T11:44:55.537Z,6.70
2019-02-11T11:47:26.942Z,6.70
2019-02-11T11:49:58.562Z,6.70
2019-02-11T11:52:30.170Z,6.70
2019-02-11T11:55:01.668Z,6.80
2019-02-11T11:57:33.173Z,6.70
2019-02-11T12:00:09.728Z,6.70
2019-02-11T12:02:41.230Z,6.80
2019-02-11T12:05:13.261Z,6.80
2019-02-11T12:07:44.832Z,6.80
2019-02-11T12:10:16.400Z,6.90
2019-02-11T12:12:47.987Z,6.90
2019-02-11T12:15:23.656Z,6.80
2019-02-11T12:17:55.287Z,6.80
2019-02-11T12:20:26.854Z,6.90
2019-02-11T12:22:58.269Z,6.80
2019-02-11T12:25:29.810Z,6.80
2019-02-11T12:28:01.584Z,6.90
2019-02-11T12:30:32.999Z,6.80
2019-02-11T12:33:04.511Z,6.90
2019-02-11T12:35:35.998Z,6.90
2019-02-11T12:38:07.434Z,7.00
2019-02-11T12:40:38.718Z,6.90
2019-02-11T12:43:10.072Z,7.00
2019-02-11T12:45:41.933Z,6.90
2019-02-11T12:48:13.420Z,6.90
2019-02-11T12:50:44.891Z,6.90
2019-02-11T12:53:16.296Z,6.80
2019-02-11T12:55:47.844Z,6.80
2019-02-11T12:58:19.206Z,6.80
2019-02-11T13:00:50.674Z,7.00
2019-02-11T13:03:22.171Z,7.10
2019-02-11T13:05:53.694Z,7.10
2019-02-11T13:08:25.143Z,7.20
2019-02-11T13:10:56.776Z,7.30
2019-02-11T13:13:28.215Z,7.30
2019-02-11T13:16:02.452Z,7.20
2019-02-11T13:18:33.156Z,7.30
2019-02-11T13:21:04.887Z,7.30
2019-02-11T13:23:36.486Z,7.30
2019-02-11T13:26:07.959Z,7.20
2019-02-11T13:28:39.401Z,7.20
2019-02-11T13:31:10.828Z,7.20
2019-02-11T13:33:42.483Z,7.30
2019-02-11T13:36:13.980Z,7.30
2019-02-11T13:38:45.804Z,7.40
2019-02-11T13:41:17.242Z,7.50
2019-02-11T13:43:52.934Z,7.50
2019-02-11T13:46:24.221Z,7.60
2019-02-11T13:48:55.685Z,7.50
2019-02-11T13:51:27.251Z,7.60
2019-02-11T13:53:58.685Z,7.60
2019-02-11T13:56:30.191Z,7.70
2019-02-11T13:59:01.696Z,7.80
2019-02-11T14:01:33.405Z,7.90
2019-02-11T14:04:04.913Z,7.90
2019-02-11T14:06:36.417Z,7.90
2019-02-11T14:09:15.346Z,7.80
2019-02-11T14:11:46.782Z,7.90
2019-02-11T14:14:20.372Z,7.90
2019-02-11T14:16:51.814Z,8.00
2019-02-11T14:19:23.255Z,8.10
2019-02-11T14:21:54.787Z,7.90
2019-02-11T14:24:26.235Z,7.90
2019-02-11T14:26:59.254Z,7.80
2019-02-11T14:29:31.131Z,7.80
2019-02-11T14:32:02.934Z,7.80
2019-02-11T14:34:34.445Z,7.80
2019-02-11T14:37:06.081Z,7.70
2019-02-11T14:39:38.729Z,7.70
2019-02-11T14:42:14.477Z,7.70
2019-02-11T14:44:44.526Z,7.70
2019-02-11T14:47:16.282Z,7.70
2019-02-11T14:49:47.891Z,7.70
2019-02-11T14:52:19.502Z,7.70
2019-02-11T14:54:51.134Z,7.70
2019-02-11T14:57:22.654Z,7.70
2019-02-11T14:59:54.070Z,7.70
2019-02-11T15:02:25.541Z,7.70
2019-02-11T15:04:58.117Z,7.70
2019-02-11T15:07:29.527Z,7.60
2019-02-11T15:10:00.918Z,7.50
2019-02-11T15:12:34.222Z,7.50
2019-02-11T15:15:05.961Z,7.50
2019-02-11T15:17:37.882Z,7.50
2019-02-11T15:20:14.396Z,7.60
2019-02-11T15:22:45.918Z,7.60
2019-02-11T15:25:17.685Z,7.60
2019-02-11T15:27:49.223Z,7.50
2019-02-11T15:30:20.995Z,7.60
2019-02-11T15:32:52.519Z,7.60
2019-02-11T15:35:24.375Z,7.50
2019-02-11T15:37:55.779Z,7.50
2019-02-11T15:40:27.514Z,7.50
2019-02-11T15:42:59.311Z,7.50
2019-02-11T15:45:30.786Z,7.50
2019-02-11T15:48:02.288Z,7.60
2019-02-11T15:50:33.707Z,7.50
2019-02-11T15:53:13.608Z,7.50
2019-02-11T15:55:45.329Z,7.50
2019-02-11T15:58:17.852Z,7.50
2019-02-11T16:00:49.708Z,7.50
2019-02-11T16:03:21.201Z,7.40
2019-02-11T16:05:52.836Z,7.30
2019-02-11T16:08:24.294Z,7.30
2019-02-11T16:11:01.277Z,7.30
2019-02-11T16:13:29.158Z,7.30
2019-02-11T16:16:02.842Z,7.30
2019-02-11T16:18:34.546Z,7.30
2019-02-11T16:21:06.107Z,7.30
2019-02-11T16:23:37.487Z,7.30
2019-02-11T16:26:08.950Z,7.30
2019-02-11T16:28:40.460Z,7.20
2019-02-11T16:31:12.054Z,7.10
2019-02-11T16:33:43.458Z,7.00
2019-02-11T16:36:15.034Z,7.00
2019-02-11T16:38:46.499Z,6.90
2019-02-11T16:41:18.106Z,6.90
2019-02-11T16:43:49.600Z,7.00
2019-02-11T16:46:22.367Z,7.00
2019-02-11T16:49:00.406Z,7.10
2019-02-11T16:51:27.034Z,7.00
2019-02-11T16:53:58.610Z,7.00
2019-02-11T16:56:30.223Z,7.10
2019-02-11T16:59:01.688Z,7.00
2019-02-11T17:01:37.872Z,6.90
2019-02-11T17:04:09.300Z,6.80
2019-02-11T17:06:40.942Z,6.80
2019-02-11T17:09:12.323Z,6.80
2019-02-11T17:11:44.081Z,6.70
2019-02-11T17:14:16.202Z,6.60
2019-02-11T17:16:48.478Z,6.60
2019-02-11T17:19:19.994Z,6.70
2019-02-11T17:21:51.418Z,6.70
2019-02-11T17:24:22.911Z,6.70
2019-02-11T17:26:54.624Z,6.70
2019-02-11T17:29:26.370Z,6.70
2019-02-11T17:31:57.918Z,6.70
2019-02-11T17:34:29.545Z,6.70
2019-02-11T17:37:01.057Z,6.60
2019-02-11T17:39:33.493Z,6.70
2019-02-11T17:42:04.955Z,6.70
2019-02-11T17:44:36.427Z,6.70
2019-02-11T17:47:08.049Z,6.70
2019-02-11T17:49:40.029Z,6.90
2019-02-11T17:52:12.265Z,6.90
2019-02-11T17:54:43.881Z,6.90
2019-02-11T17:57:15.360Z,6.80
2019-02-11T17:59:46.918Z,6.80
2019-02-11T18:02:18.460Z,6.80
2019-02-11T18:04:49.854Z,6.80
2019-02-11T18:07:21.342Z,6.70
2019-02-11T18:09:52.845Z,6.60
2019-02-11T18:12:24.314Z,6.70
2019-02-11T18:14:55.755Z,6.60
2019-02-11T18:17:28.176Z,6.60
2019-02-11T18:19:59.662Z,6.60
2019-02-11T18:22:31.265Z,6.60
2019-02-11T18:25:02.608Z,6.60
2019-02-11T18:27:34.647Z,6.60
2019-02-11T18:30:07.767Z,6.50
2019-02-11T18:32:39.329Z,6.50
2019-02-11T18:35:12.020Z,6.60
2019-02-11T18:37:43.548Z,6.60
2019-02-11T18:40:15.261Z,6.70
2019-02-11T18:42:46.973Z,6.70
2019-02-11T18:45:18.362Z,6.70
2019-02-11T18:47:50.570Z,6.80
2019-02-11T18:50:24.255Z,6.90
2019-02-11T18:52:56.591Z,7.00
2019-02-11T18:55:30.064Z,7.00
2019-02-11T18:58:01.558Z,7.10
2019-02-11T19:00:33.069Z,7.00
2019-02-11T19:03:04.453Z,7.00
2019-02-11T19:05:36.155Z,7.00
2019-02-11T19:08:07.532Z,7.00
2019-02-11T19:10:39.227Z,7.00
2019-02-11T19:13:10.858Z,7.10
2019-02-11T19:15:42.363Z,7.10
2019-02-11T19:18:14.116Z,7.20
2019-02-11T19:20:45.512Z,7.20
2019-02-11T19:23:16.828Z,7.20
2019-02-11T19:25:48.210Z,7.20
2019-02-11T19:28:19.663Z,7.10
2019-02-11T19:30:50.997Z,7.00
2019-02-11T19:33:22.362Z,6.90
2019-02-11T19:35:53.741Z,6.80
2019-02-11T19:38:25.258Z,6.80
2019-02-11T19:40:56.780Z,6.80
2019-02-11T19:43:28.427Z,6.70
2019-02-11T19:45:59.982Z,6.70
2019-02-11T19:48:31.386Z,6.60
2019-02-11T19:51:02.986Z,6.60
2019-02-11T19:53:34.435Z,6.50
2019-02-11T19:56:05.926Z,6.50
2019-02-11T19:58:37.303Z,6.50
2019-02-11T20:01:08.700Z,6.50
2019-02-11T20:03:41.331Z,6.50
2019-02-11T20:06:12.755Z,6.60
2019-02-11T20:08:44.223Z,6.40
2019-02-11T20:11:16.614Z,6.40
2019-02-11T20:13:48.058Z,6.40
2019-02-11T20:16:19.625Z,6.40
2019-02-11T20:18:51.092Z,6.30
2019-02-11T20:21:22.541Z,6.10
2019-02-11T20:23:54.082Z,6.20
2019-02-11T20:26:25.539Z,6.20
2019-02-11T20:28:57.026Z,6.20
2019-02-11T20:31:30.136Z,6.20
2019-02-11T20:34:01.513Z,6.20
2019-02-11T20:36:34.067Z,6.00
2019-02-11T20:39:06.887Z,5.90
2019-02-11T20:41:38.730Z,5.90
2019-02-11T20:44:10.222Z,5.80
2019-02-11T20:46:41.730Z,5.80
2019-02-11T20:49:13.288Z,5.80
2019-02-11T20:51:46.059Z,5.70
2019-02-11T20:54:18.482Z,5.70
2019-02-11T20:56:50.003Z,5.70
2019-02-11T20:59:21.333Z,5.70
2019-02-11T21:01:52.768Z,5.70
2019-02-11T21:04:24.188Z,5.60
2019-02-11T21:06:55.730Z,5.60
2019-02-11T21:09:27.208Z,5.50
2019-02-11T21:11:58.632Z,5.40
2019-02-11T21:14:32.134Z,5.40
2019-02-11T21:17:03.770Z,5.40
2019-02-11T21:19:35.614Z,5.30
2019-02-11T21:22:07.066Z,5.30
2019-02-11T21:24:38.596Z,5.20
2019-02-11T21:27:10.140Z,5.30
2019-02-11T21:29:41.578Z,5.20
2019-02-11T21:32:13.153Z,5.20
2019-02-11T21:34:44.565Z,5.20
2019-02-11T21:37:16.125Z,5.10
2019-02-11T21:39:47.576Z,5.10
2019-02-11T21:42:19.059Z,5.10
2019-02-11T21:44:50.516Z,5.20
2019-02-11T21:47:22.022Z,5.20
2019-02-11T21:49:53.432Z,5.20
2019-02-11T21:52:24.886Z,5.20
2019-02-11T21:54:56.450Z,5.20
2019-02-11T21:57:34.305Z,5.20
2019-02-11T22:00:08.385Z,5.10
2019-02-11T22:02:40.142Z,5.00
2019-02-11T22:05:11.561Z,5.00
2019-02-11T22:07:43.148Z,5.00
2019-02-11T22:10:16.622Z,5.10
2019-02-11T22:12:48.402Z,5.00
2019-02-11T22:15:19.908Z,5.00
2019-02-11T22:17:51.352Z,4.90
2019-02-11T22:20:22.720Z,4.80
2019-02-11T22:22:54.214Z,4.80
2019-02-11T22:25:25.697Z,4.80
2019-02-11T22:27:57.491Z,4.80
2019-02-11T22:30:29.052Z,4.80
2019-02-11T22:33:00.557Z,4.80
2019-02-11T22:35:32.031Z,4.80
2019-02-11T22:38:03.647Z,4.80
2019-02-11T22:40:35.323Z,4.80
2019-02-11T22:43:06.920Z,4.80
2019-02-11T22:45:38.569Z,4.70
2019-02-11T22:48:10.081Z,4.70
2019-02-11T22:50:43.183Z,4.70
2019-02-11T22:53:14.769Z,4.60
2019-02-11T22:55:46.372Z,4.60
2019-02-11T22:58:18.973Z,4.60
2019-02-11T23:01:03.604Z,4.50
2019-02-11T23:03:36.930Z,4.50
2019-02-11T23:06:08.250Z,4.50
2019-02-11T23:08:39.692Z,4.50
2019-02-11T23:11:11.078Z,4.40
2019-02-11T23:13:42.908Z,4.40
2019-02-11T23:16:14.410Z,4.40
2019-02-11T23:18:47.975Z,4.40
2019-02-11T23:21:19.404Z,4.40
2019-02-11T23:23:51.031Z,4.40
2019-02-11T23:26:22.563Z,4.30
2019-02-11T23:28:54.217Z,4.30
2019-02-11T23:31:25.667Z,4.30
2019-02-11T23:33:57.800Z,4.30
2019-02-11T23:36:29.255Z,4.30
2019-02-11T23:39:00.739Z,4.20
2019-02-11T23:41:33.851Z,4.30
2019-02-11T23:44:05.602Z,4.30
2019-02-11T23:46:37.041Z,4.20
2019-02-11T23:49:08.550Z,4.30
2019-02-11T23:51:41.110Z,4.20
2019-02-11T23:54:12.824Z,4.20
2019-02-11T23:56:45.302Z,4.10
2019-02-11T23:59:16.753Z,4.10
